createdAt,value
2023-03-29T00:00:41.080Z,7.69
2023-03-29T00:01:41.006Z,7.66
2023-03-29T00:02:41.135Z,7.67
2023-03-29T00:03:41.104Z,7.67
2023-03-29T00:04:41.049Z,7.63
2023-03-29T00:05:40.986Z,7.67
2023-03-29T00:06:41.012Z,7.67
2023-03-29T00:07:40.975Z,7.66
2023-03-29T00:08:40.981Z,7.66
2023-03-29T00:09:40.929Z,7.61
2023-03-29T00:10:40.931Z,7.61
2023-03-29T00:11:40.915Z,7.61
2023-03-29T00:12:40.936Z,7.61
2023-03-29T00:13:40.917Z,7.60
2023-03-29T00:14:40.934Z,7.58
2023-03-29T00:15:40.873Z,7.58
2023-03-29T00:16:40.927Z,7.56
2023-03-29T00:17:40.865Z,7.56
2023-03-29T00:18:40.860Z,7.54
2023-03-29T00:19:40.818Z,7.54
2023-03-29T00:20:40.837Z,7.56
2023-03-29T00:21:40.810Z,7.56
2023-03-29T00:22:40.797Z,7.56
2023-03-29T00:23:40.789Z,7.53
2023-03-29T00:24:40.786Z,7.53
2023-03-29T00:25:40.747Z,7.51
2023-03-29T00:26:40.769Z,7.51
2023-03-29T00:27:40.749Z,7.48
2023-03-29T00:28:40.915Z,7.50
2023-03-29T00:29:40.747Z,7.53
2023-03-29T00:30:40.732Z,7.53
2023-03-29T00:31:40.738Z,7.51
2023-03-29T00:32:40.749Z,7.51
2023-03-29T00:33:40.673Z,7.51
2023-03-29T00:34:40.665Z,7.53
2023-03-29T00:35:40.693Z,7.53
2023-03-29T00:36:40.686Z,7.53
2023-03-29T00:37:40.631Z,7.54
2023-03-29T00:38:40.622Z,7.51
2023-03-29T00:39:40.639Z,7.53
2023-03-29T00:40:40.601Z,7.53
2023-03-29T00:41:40.577Z,7.53
2023-03-29T00:42:40.600Z,7.54
2023-03-29T00:43:40.602Z,7.54
2023-03-29T00:44:40.551Z,7.54
2023-03-29T00:45:40.530Z,7.54
2023-03-29T00:46:40.631Z,7.54
2023-03-29T00:47:40.515Z,7.54
2023-03-29T00:48:40.517Z,7.54
2023-03-29T00:49:40.511Z,7.53
2023-03-29T00:50:40.489Z,7.54
2023-03-29T00:51:40.467Z,7.54
2023-03-29T00:52:40.533Z,7.54
2023-03-29T00:53:40.447Z,7.51
2023-03-29T00:54:40.445Z,7.54
2023-03-29T00:55:40.438Z,7.53
2023-03-29T00:56:40.592Z,7.56
2023-03-29T00:57:40.446Z,7.56
2023-03-29T00:58:40.415Z,7.54
2023-03-29T00:59:40.397Z,7.53
2023-03-29T01:00:40.417Z,7.56
2023-03-29T01:01:40.382Z,7.54
2023-03-29T01:02:40.555Z,7.53
2023-03-29T01:03:40.390Z,7.54
2023-03-29T01:04:40.354Z,7.56
2023-03-29T01:05:40.331Z,7.53
2023-03-29T01:06:40.349Z,7.54
2023-03-29T01:07:40.346Z,7.57
2023-03-29T01:08:40.294Z,7.56
2023-03-29T01:09:47.128Z,7.57
2023-03-29T01:10:40.269Z,7.57
2023-03-29T01:11:40.276Z,7.57
2023-03-29T01:12:40.264Z,7.58
2023-03-29T01:13:40.281Z,7.57
2023-03-29T01:14:40.257Z,7.58
2023-03-29T01:15:40.254Z,7.60
2023-03-29T01:16:40.251Z,7.58
2023-03-29T01:17:40.297Z,7.58
2023-03-29T01:18:40.206Z,7.57
2023-03-29T01:19:40.254Z,7.57
2023-03-29T01:20:40.172Z,7.56
2023-03-29T01:21:40.278Z,7.57
2023-03-29T01:22:40.150Z,7.57
2023-03-29T01:23:40.193Z,7.56
2023-03-29T01:24:40.135Z,7.57
2023-03-29T01:25:40.211Z,7.56
2023-03-29T01:26:40.106Z,7.54
2023-03-29T01:27:40.149Z,7.56
2023-03-29T01:28:40.129Z,7.54
2023-03-29T01:29:40.099Z,7.54
2023-03-29T06:00:49.361Z,7.75
2023-03-29T06:01:50.357Z,7.77
2023-03-29T06:02:50.431Z,7.77
2023-03-29T06:03:50.432Z,7.79
2023-03-29T06:04:50.315Z,7.79
2023-03-29T06:05:50.326Z,7.79
2023-03-29T06:06:50.285Z,7.80
2023-03-29T06:07:50.279Z,7.82
2023-03-29T06:08:50.264Z,7.82
2023-03-29T06:09:50.267Z,7.83
2023-03-29T06:10:50.230Z,7.85
2023-03-29T06:11:50.247Z,7.87
2023-03-29T06:12:50.240Z,7.90
2023-03-29T06:13:50.214Z,7.90
2023-03-29T06:14:50.198Z,7.93
2023-03-29T06:15:50.209Z,7.91
2023-03-29T06:16:50.215Z,7.94
2023-03-29T06:17:50.236Z,7.97
2023-03-29T06:18:50.146Z,7.98
2023-03-29T06:19:50.162Z,8.00
2023-03-29T06:20:50.143Z,8.01
2023-03-29T06:21:50.142Z,8.01
2023-03-29T06:22:50.113Z,8.03
2023-03-29T06:23:50.135Z,8.03
2023-03-29T06:24:50.083Z,8.05
2023-03-29T06:25:50.093Z,8.06
2023-03-29T06:26:50.084Z,8.06
2023-03-29T06:27:50.083Z,8.08
2023-03-29T06:28:52.206Z,8.06
2023-03-29T06:29:50.066Z,8.06
2023-03-29T06:30:50.051Z,8.08
2023-03-29T06:31:50.086Z,8.06
2023-03-29T06:32:50.059Z,8.08
2023-03-29T06:33:50.024Z,8.08
2023-03-29T06:34:49.980Z,8.06
2023-03-29T06:35:50.072Z,8.08
2023-03-29T06:36:49.985Z,8.06
2023-03-29T06:37:49.983Z,8.09
2023-03-29T06:38:49.949Z,8.09
2023-03-29T06:39:51.955Z,8.09
2023-03-29T06:40:49.945Z,8.09
2023-03-29T06:41:49.921Z,8.09
2023-03-29T06:42:49.911Z,8.09
2023-03-29T06:43:49.914Z,8.08
2023-03-29T06:44:49.897Z,8.09
2023-03-29T06:45:49.890Z,8.08
2023-03-29T06:46:49.991Z,8.06
2023-03-29T06:47:49.937Z,8.09
2023-03-29T06:48:49.840Z,8.09
2023-03-29T06:49:49.860Z,8.09
2023-03-29T06:50:49.813Z,8.09
2023-03-29T06:51:49.833Z,8.10
2023-03-29T06:52:49.921Z,8.13
2023-03-29T06:53:49.785Z,8.15
2023-03-29T06:54:49.776Z,8.15
2023-03-29T06:55:49.801Z,8.18
2023-03-29T06:56:49.790Z,8.19
2023-03-29T06:57:49.756Z,8.19
2023-03-29T06:58:49.723Z,8.23
2023-03-29T06:59:49.725Z,8.26
2023-03-29T07:00:49.711Z,8.28
2023-03-29T07:01:49.752Z,8.30
2023-03-29T07:02:49.724Z,8.31
2023-03-29T07:03:49.720Z,8.30
2023-03-29T07:04:49.728Z,8.33
2023-03-29T07:05:49.686Z,8.33
2023-03-29T07:06:49.631Z,8.36
2023-03-29T07:07:49.672Z,8.37
2023-03-29T07:08:49.605Z,8.37
2023-03-29T07:09:49.616Z,8.37
2023-03-29T07:10:49.621Z,8.36
2023-03-29T07:11:49.598Z,8.36
2023-03-29T07:12:49.604Z,8.38
2023-03-29T07:13:49.577Z,8.37
2023-03-29T07:14:49.541Z,8.37
2023-03-29T07:15:49.582Z,8.37
2023-03-29T07:16:49.546Z,8.37
2023-03-29T07:17:49.623Z,8.38
2023-03-29T07:18:49.536Z,8.42
2023-03-29T07:19:49.514Z,8.41
2023-03-29T07:20:49.534Z,8.38
2023-03-29T07:21:49.538Z,8.42
2023-03-29T07:22:49.473Z,8.44
2023-03-29T07:23:49.476Z,8.45
2023-03-29T07:24:49.441Z,8.48
2023-03-29T07:25:49.452Z,8.48
2023-03-29T07:27:03.302Z,8.51
2023-03-29T07:27:49.599Z,8.51
2023-03-29T07:28:49.399Z,8.53
2023-03-29T07:29:49.426Z,8.56
2023-03-29T07:30:49.405Z,8.56
2023-03-29T07:31:49.388Z,8.58
2023-03-29T07:32:49.427Z,8.60
2023-03-29T07:33:49.535Z,8.61
2023-03-29T07:34:49.330Z,8.64
2023-03-29T07:35:49.387Z,8.66
2023-03-29T07:36:49.312Z,8.67
2023-03-29T07:37:49.316Z,8.69
2023-03-29T07:38:49.409Z,8.70
2023-03-29T07:39:49.318Z,8.71
2023-03-29T07:40:49.276Z,8.73
2023-03-29T07:41:49.286Z,8.74
2023-03-29T07:42:49.257Z,8.76
2023-03-29T07:43:49.256Z,8.79
2023-03-29T07:44:49.223Z,8.82
2023-03-29T07:45:49.308Z,8.84
2023-03-29T07:46:49.200Z,8.84
2023-03-29T07:47:49.290Z,8.87
2023-03-29T07:48:49.173Z,8.85
2023-03-29T07:49:49.190Z,8.88
2023-03-29T07:50:49.171Z,8.89
2023-03-29T07:51:49.217Z,8.92
2023-03-29T07:52:49.159Z,8.92
2023-03-29T07:53:49.152Z,8.95
2023-03-29T07:54:49.117Z,8.97
2023-03-29T07:55:49.143Z,8.99
2023-03-29T07:56:49.118Z,9.02
2023-03-29T07:57:49.110Z,9.03
2023-03-29T07:58:49.067Z,9.06
2023-03-29T07:59:49.071Z,9.06
2023-03-29T08:00:49.136Z,9.10
2023-03-29T08:01:49.070Z,9.13
2023-03-29T08:02:49.123Z,9.14
2023-03-29T08:03:49.067Z,9.16
2023-03-29T08:04:49.034Z,9.19
2023-03-29T08:05:49.015Z,9.18
2023-03-29T08:06:48.995Z,9.21
2023-03-29T08:07:49.002Z,9.21
2023-03-29T08:08:48.989Z,9.22
2023-03-29T08:09:48.971Z,9.22
2023-03-29T08:10:48.945Z,9.23
2023-03-29T08:11:48.950Z,9.23
2023-03-29T08:12:48.948Z,9.26
2023-03-29T08:13:48.929Z,9.26
2023-03-29T08:14:48.917Z,9.26
2023-03-29T08:15:48.916Z,9.28
2023-03-29T08:16:48.897Z,9.28
2023-03-29T08:17:48.891Z,9.26
2023-03-29T08:18:48.856Z,9.25
2023-03-29T08:19:50.934Z,9.26
2023-03-29T08:20:48.866Z,9.28
2023-03-29T08:21:48.839Z,9.31
2023-03-29T08:22:48.818Z,9.32
2023-03-29T08:23:48.819Z,9.34
2023-03-29T08:24:48.797Z,9.36
2023-03-29T08:25:48.809Z,9.37
2023-03-29T08:26:48.837Z,9.40
2023-03-29T08:27:48.785Z,9.41
2023-03-29T08:28:48.750Z,9.44
2023-03-29T08:29:48.753Z,9.46
2023-03-29T08:30:48.747Z,9.47
2023-03-29T08:31:48.731Z,9.51
2023-03-29T08:32:51.067Z,9.50
2023-03-29T08:33:48.719Z,9.50
2023-03-29T08:34:48.679Z,9.56
2023-03-29T08:35:48.745Z,9.56
2023-03-29T08:36:48.684Z,9.59
2023-03-29T08:37:48.672Z,9.62
2023-03-29T08:38:48.686Z,9.64
2023-03-29T08:39:48.679Z,9.68
2023-03-29T08:40:48.619Z,9.73
2023-03-29T08:41:48.660Z,9.77
2023-03-29T08:42:48.608Z,9.83
2023-03-29T08:43:48.609Z,9.86
2023-03-29T08:44:48.612Z,9.91
2023-03-29T08:45:50.808Z,9.92
2023-03-29T08:46:48.605Z,9.98
2023-03-29T08:47:48.640Z,10.01
2023-03-29T08:48:48.541Z,10.04
2023-03-29T08:49:48.586Z,10.07
2023-03-29T08:50:48.534Z,10.10
2023-03-29T08:51:48.539Z,10.12
2023-03-29T08:52:48.504Z,10.15
2023-03-29T08:53:48.497Z,10.17
2023-03-29T08:54:48.489Z,10.20
2023-03-29T08:55:48.470Z,10.22
2023-03-29T08:56:49.197Z,10.25
2023-03-29T08:57:48.477Z,10.28
2023-03-29T08:58:48.436Z,10.31
2023-03-29T08:59:48.432Z,10.31
2023-03-29T09:00:48.400Z,10.33
2023-03-29T09:01:48.789Z,10.37
2023-03-29T09:02:48.457Z,10.40
2023-03-29T09:03:48.610Z,10.40
2023-03-29T09:04:48.362Z,10.44
2023-03-29T09:05:48.380Z,10.41
2023-03-29T09:06:48.357Z,10.41
2023-03-29T09:07:48.330Z,10.44
2023-03-29T09:08:48.357Z,10.44
2023-03-29T09:09:48.325Z,10.44
2023-03-29T09:10:48.315Z,10.44
2023-03-29T09:11:48.305Z,10.46
2023-03-29T09:12:48.318Z,10.46
2023-03-29T09:13:48.265Z,10.49
2023-03-29T09:14:48.296Z,10.48
2023-03-29T09:15:48.323Z,10.51
2023-03-29T09:16:48.257Z,10.53
2023-03-29T09:17:49.708Z,10.56
2023-03-29T09:18:48.221Z,10.57
2023-03-29T09:19:48.202Z,10.57
2023-03-29T09:20:48.210Z,10.60
2023-03-29T09:21:48.196Z,10.64
2023-03-29T09:22:48.173Z,10.67
2023-03-29T09:23:48.156Z,10.69
2023-03-29T09:24:48.164Z,10.72
2023-03-29T09:25:53.604Z,10.75
2023-03-29T09:26:48.153Z,10.75
2023-03-29T09:27:48.109Z,10.78
2023-03-29T09:28:48.110Z,10.79
2023-03-29T09:29:48.098Z,10.79
2023-03-29T09:30:48.086Z,10.84
2023-03-29T09:31:48.148Z,10.86
2023-03-29T09:32:48.147Z,10.89
2023-03-29T09:33:48.049Z,10.92
2023-03-29T09:34:48.056Z,10.93
2023-03-29T09:35:48.037Z,10.93
2023-03-29T09:36:48.056Z,10.93
2023-03-29T09:37:47.999Z,10.96
2023-03-29T09:38:48.046Z,10.96
2023-03-29T09:39:47.981Z,10.96
2023-03-29T09:40:47.980Z,10.97
2023-03-29T09:41:47.976Z,10.99
2023-03-29T09:42:47.962Z,11.00
2023-03-29T09:43:48.031Z,11.00
2023-03-29T09:44:47.939Z,11.02
2023-03-29T09:45:47.945Z,11.04
2023-03-29T09:46:47.925Z,11.08
2023-03-29T09:47:47.910Z,11.10
2023-03-29T09:48:47.894Z,11.11
2023-03-29T09:49:47.895Z,11.11
2023-03-29T09:50:47.891Z,11.14
2023-03-29T09:51:47.867Z,11.15
2023-03-29T09:52:47.936Z,11.18
2023-03-29T09:53:47.851Z,11.18
2023-03-29T09:54:47.846Z,11.22
2023-03-29T09:55:49.115Z,11.22
2023-03-29T09:56:47.859Z,11.19
2023-03-29T09:57:47.795Z,11.19
2023-03-29T09:58:47.792Z,11.25
2023-03-29T09:59:47.881Z,11.27
2023-03-29T10:00:47.852Z,11.27
2023-03-29T10:01:47.990Z,11.32
2023-03-29T10:02:47.757Z,11.36
2023-03-29T10:03:47.776Z,11.40
2023-03-29T10:04:47.752Z,11.41
2023-03-29T10:05:47.714Z,11.43
2023-03-29T10:06:47.721Z,11.50
2023-03-29T10:07:47.723Z,11.52
2023-03-29T10:08:47.685Z,11.57
2023-03-29T10:09:47.661Z,11.59
2023-03-29T10:10:47.668Z,11.65
2023-03-29T10:11:47.638Z,11.69
2023-03-29T10:12:47.680Z,11.72
2023-03-29T10:13:47.656Z,11.73
2023-03-29T10:14:47.615Z,11.75
2023-03-29T10:15:47.629Z,11.73
2023-03-29T10:16:47.730Z,11.75
2023-03-29T10:17:47.588Z,11.73
2023-03-29T10:18:47.579Z,11.73
2023-03-29T10:19:47.568Z,11.73
2023-03-29T10:20:47.550Z,11.78
2023-03-29T10:21:47.540Z,11.81
2023-03-29T10:22:47.527Z,11.86
2023-03-29T10:23:47.505Z,11.88
2023-03-29T10:24:47.529Z,11.91
2023-03-29T10:25:47.623Z,11.90
2023-03-29T10:26:47.478Z,11.90
2023-03-29T10:27:47.455Z,11.95
2023-03-29T10:28:47.465Z,11.99
2023-03-29T10:29:47.435Z,12.03
2023-03-29T10:30:47.441Z,12.04
2023-03-29T10:31:47.450Z,12.03
2023-03-29T10:32:47.462Z,12.06
2023-03-29T10:33:47.410Z,12.06
2023-03-29T10:34:47.413Z,12.09
2023-03-29T10:35:47.428Z,12.12
2023-03-29T10:36:47.373Z,12.17
2023-03-29T10:37:47.373Z,12.20
2023-03-29T10:38:47.352Z,12.27
2023-03-29T10:39:47.346Z,12.29
2023-03-29T10:40:47.550Z,12.31
2023-03-29T10:41:47.304Z,12.31
2023-03-29T10:42:47.306Z,12.36
2023-03-29T10:43:47.304Z,12.35
2023-03-29T10:44:47.287Z,12.36
2023-03-29T10:45:47.290Z,12.39
2023-03-29T10:46:47.278Z,12.42
2023-03-29T10:47:47.314Z,12.42
2023-03-29T10:48:47.265Z,12.45
2023-03-29T10:49:47.961Z,12.45
2023-03-29T10:50:47.275Z,12.46
2023-03-29T10:51:47.256Z,12.50
2023-03-29T10:52:47.266Z,12.53
2023-03-29T10:53:47.274Z,12.50
2023-03-29T10:54:47.265Z,12.53
2023-03-29T10:55:47.199Z,12.54
2023-03-29T10:56:47.298Z,12.55
2023-03-29T10:57:47.302Z,12.57
2023-03-29T10:58:47.163Z,12.60
2023-03-29T10:59:47.115Z,12.64
2023-03-29T11:00:47.114Z,12.64
2023-03-29T11:01:47.183Z,12.65
2023-03-29T11:02:47.220Z,12.70
2023-03-29T11:03:47.220Z,12.73
2023-03-29T11:04:47.070Z,12.76
2023-03-29T11:05:47.057Z,12.76
2023-03-29T11:06:47.067Z,12.78
2023-03-29T11:07:47.035Z,12.80
2023-03-29T11:08:47.035Z,12.83
2023-03-29T11:09:46.992Z,12.86
2023-03-29T11:10:47.030Z,12.87
2023-03-29T11:11:46.977Z,12.86
2023-03-29T11:12:46.989Z,12.86
2023-03-29T11:13:46.990Z,12.90
2023-03-29T11:14:46.984Z,12.87
2023-03-29T11:15:46.948Z,12.87
2023-03-29T11:16:46.951Z,12.90
2023-03-29T11:17:46.986Z,12.95
2023-03-29T11:18:46.927Z,12.98
2023-03-29T11:19:46.919Z,13.01
2023-03-29T11:20:46.928Z,13.08
2023-03-29T11:21:46.865Z,13.11
2023-03-29T11:22:46.875Z,13.16
2023-03-29T11:23:46.853Z,13.19
2023-03-29T11:24:46.873Z,13.23
2023-03-29T11:25:46.827Z,13.27
2023-03-29T11:26:46.855Z,13.35
2023-03-29T11:27:46.811Z,13.39
2023-03-29T11:28:46.891Z,13.46
2023-03-29T11:29:46.796Z,13.49
2023-03-29T11:30:46.813Z,13.50
2023-03-29T11:31:46.794Z,13.56
2023-03-29T11:32:46.778Z,13.60
2023-03-29T11:33:46.753Z,13.67
2023-03-29T11:34:46.752Z,13.71
2023-03-29T11:35:46.735Z,13.77
2023-03-29T11:36:46.739Z,13.81
2023-03-29T11:37:46.696Z,13.87
2023-03-29T11:38:46.729Z,13.90
2023-03-29T11:39:46.693Z,13.96
2023-03-29T11:40:46.700Z,14.03
2023-03-29T11:41:46.679Z,14.07
2023-03-29T11:42:46.655Z,14.11
2023-03-29T11:43:46.629Z,14.12
2023-03-29T11:44:47.047Z,14.12
2023-03-29T11:45:46.632Z,14.12
2023-03-29T11:46:46.639Z,14.15
2023-03-29T11:47:46.657Z,14.17
2023-03-29T11:48:46.595Z,14.23
2023-03-29T11:49:46.568Z,14.20
2023-03-29T11:50:46.589Z,14.25
2023-03-29T11:51:46.548Z,14.30
2023-03-29T11:52:46.563Z,14.35
2023-03-29T11:53:46.543Z,14.41
2023-03-29T11:54:46.521Z,14.47
2023-03-29T11:55:46.496Z,14.53
2023-03-29T11:56:46.580Z,14.55
2023-03-29T11:57:46.485Z,14.60
2023-03-29T11:58:46.483Z,14.58
2023-03-29T11:59:46.480Z,14.55
2023-03-29T12:00:46.463Z,14.62
2023-03-29T12:01:46.478Z,14.66
2023-03-29T12:02:46.576Z,14.73
2023-03-29T12:03:47.340Z,14.73
2023-03-29T12:04:46.392Z,14.72
2023-03-29T12:05:46.441Z,14.77
2023-03-29T12:06:46.374Z,14.78
2023-03-29T12:07:46.394Z,14.81
2023-03-29T12:08:46.381Z,14.82
2023-03-29T12:09:46.364Z,14.84
2023-03-29T12:10:46.341Z,14.86
2023-03-29T12:11:46.369Z,14.86
2023-03-29T12:12:46.320Z,14.91
2023-03-29T12:13:46.325Z,14.94
2023-03-29T12:14:46.286Z,14.97
2023-03-29T12:15:46.305Z,15.00
2023-03-29T12:16:46.312Z,15.04
2023-03-29T12:17:46.326Z,15.07
2023-03-29T12:18:46.266Z,15.10
2023-03-29T12:19:46.258Z,15.17
2023-03-29T12:20:46.297Z,15.21
2023-03-29T12:21:46.262Z,15.27
2023-03-29T12:22:46.207Z,15.29
2023-03-29T12:23:46.272Z,15.35
2023-03-29T12:24:46.219Z,15.36
2023-03-29T12:25:46.236Z,15.37
2023-03-29T12:26:46.160Z,15.39
2023-03-29T12:27:46.160Z,15.37
2023-03-29T12:28:46.161Z,15.40
2023-03-29T12:29:46.146Z,15.43
2023-03-29T12:30:46.119Z,15.46
2023-03-29T12:31:46.189Z,15.49
2023-03-29T12:32:46.134Z,15.57
2023-03-29T12:33:46.192Z,15.54
2023-03-29T12:34:46.077Z,15.55
2023-03-29T12:35:46.099Z,15.58
2023-03-29T12:36:46.054Z,15.62
2023-03-29T12:37:46.087Z,15.65
2023-03-29T12:38:46.146Z,15.64
2023-03-29T12:39:46.087Z,15.67
2023-03-29T12:40:46.009Z,15.70
2023-03-29T12:41:46.055Z,15.72
2023-03-29T12:42:45.986Z,15.79
2023-03-29T12:43:46.021Z,15.84
2023-03-29T12:44:45.974Z,15.91
2023-03-29T12:45:46.032Z,15.97
2023-03-29T12:46:45.992Z,16.00
2023-03-29T12:47:45.961Z,16.01
2023-03-29T12:48:45.924Z,16.00
2023-03-29T12:49:45.944Z,16.00
2023-03-29T12:50:45.916Z,16.01
2023-03-29T12:51:45.919Z,15.95
2023-03-29T12:52:45.902Z,15.92
2023-03-29T12:53:45.877Z,15.94
2023-03-29T12:54:45.884Z,15.92
2023-03-29T12:55:45.878Z,15.92
2023-03-29T12:56:45.896Z,15.95
2023-03-29T12:57:45.842Z,15.95
2023-03-29T12:58:45.839Z,15.97
2023-03-29T12:59:45.825Z,16.01
2023-03-29T13:00:45.866Z,16.02
2023-03-29T13:01:45.917Z,16.08
2023-03-29T13:02:46.052Z,16.04
2023-03-29T13:03:45.791Z,16.10
2023-03-29T13:04:45.762Z,16.10
2023-03-29T13:05:45.866Z,16.13
2023-03-29T13:06:45.736Z,16.13
2023-03-29T13:07:45.763Z,16.09
2023-03-29T13:08:45.712Z,16.02
2023-03-29T13:09:45.716Z,16.01
2023-03-29T13:10:45.684Z,15.95
2023-03-29T13:11:45.728Z,15.92
2023-03-29T13:12:45.671Z,15.90
2023-03-29T13:13:45.752Z,15.88
2023-03-29T13:14:45.641Z,15.86
2023-03-29T13:15:45.721Z,15.83
2023-03-29T13:16:45.629Z,15.84
2023-03-29T13:17:45.709Z,15.88
2023-03-29T13:18:45.623Z,15.88
2023-03-29T13:19:45.598Z,15.84
2023-03-29T13:20:45.577Z,15.84
2023-03-29T13:21:45.599Z,15.83
2023-03-29T13:22:45.567Z,15.83
2023-03-29T13:23:45.560Z,15.82
2023-03-29T13:24:45.587Z,15.80
2023-03-29T13:25:45.542Z,15.80
2023-03-29T13:26:45.522Z,15.80
2023-03-29T13:27:45.521Z,15.82
2023-03-29T13:28:45.486Z,15.80
2023-03-29T13:29:45.522Z,15.82
2023-03-29T13:30:45.482Z,15.80
2023-03-29T13:31:45.520Z,15.82
2023-03-29T13:32:45.502Z,15.83
2023-03-29T13:33:45.450Z,15.80
2023-03-29T13:34:45.451Z,15.76
2023-03-29T13:35:45.461Z,15.76
2023-03-29T13:36:45.413Z,15.73
2023-03-29T13:37:45.414Z,15.68
2023-03-29T13:38:45.385Z,15.65
2023-03-29T13:39:45.380Z,15.61
2023-03-29T13:40:45.374Z,15.59
2023-03-29T13:41:45.368Z,15.58
2023-03-29T13:42:46.787Z,15.61
2023-03-29T13:43:45.341Z,15.58
2023-03-29T13:44:45.346Z,15.58
2023-03-29T13:45:45.323Z,15.58
2023-03-29T13:46:45.433Z,15.59
2023-03-29T13:47:58.345Z,15.61
2023-03-29T13:48:45.278Z,15.65
2023-03-29T13:49:45.277Z,15.68
2023-03-29T13:50:45.246Z,15.73
2023-03-29T13:51:45.303Z,15.79
2023-03-29T13:52:45.300Z,15.82
2023-03-29T13:53:45.237Z,15.88
2023-03-29T13:54:45.204Z,15.88
2023-03-29T13:55:45.208Z,15.92
2023-03-29T13:56:45.217Z,15.91
2023-03-29T13:57:45.195Z,15.92
2023-03-29T13:58:45.176Z,15.97
2023-03-29T13:59:45.172Z,16.00
2023-03-29T14:00:45.154Z,16.04
2023-03-29T14:01:45.192Z,16.05
2023-03-29T14:02:47.256Z,16.12
2023-03-29T14:03:45.120Z,16.15
2023-03-29T14:04:45.132Z,16.17
2023-03-29T14:05:45.114Z,16.20
2023-03-29T14:06:45.073Z,16.20
2023-03-29T14:07:45.088Z,16.20
2023-03-29T14:08:45.060Z,16.23
2023-03-29T14:09:45.072Z,16.28
2023-03-29T14:10:45.074Z,16.29
2023-03-29T14:11:45.040Z,16.32
2023-03-29T14:12:45.024Z,16.35
2023-03-29T14:13:45.031Z,16.36
2023-03-29T14:14:57.830Z,16.38
2023-03-29T14:15:44.996Z,16.41
2023-03-29T14:16:45.028Z,16.36
2023-03-29T14:17:45.084Z,16.35
2023-03-29T14:18:45.080Z,16.33
2023-03-29T14:19:44.961Z,16.35
2023-03-29T14:20:44.940Z,16.36
2023-03-29T14:21:44.934Z,16.38
2023-03-29T14:22:44.922Z,16.39
2023-03-29T14:23:44.904Z,16.38
2023-03-29T14:24:44.877Z,16.41
2023-03-29T14:25:44.883Z,16.46
2023-03-29T14:26:44.871Z,16.51
2023-03-29T14:27:44.881Z,16.56
2023-03-29T14:28:44.871Z,16.58
2023-03-29T14:29:44.836Z,16.61
2023-03-29T14:30:44.813Z,16.65
2023-03-29T14:31:44.866Z,16.66
2023-03-29T14:32:44.805Z,16.66
2023-03-29T14:33:44.847Z,16.69
2023-03-29T14:34:44.836Z,16.71
2023-03-29T14:35:44.851Z,16.74
2023-03-29T14:36:44.878Z,16.72
2023-03-29T14:37:44.748Z,16.76
2023-03-29T14:38:44.732Z,16.76
2023-03-29T14:39:44.721Z,16.78
2023-03-29T14:40:44.732Z,16.81
2023-03-29T14:41:44.700Z,16.81
2023-03-29T14:42:44.700Z,16.81
2023-03-29T14:43:44.684Z,16.79
2023-03-29T14:44:44.668Z,16.79
2023-03-29T14:45:44.670Z,16.76
2023-03-29T14:46:44.685Z,16.79
2023-03-29T14:47:44.715Z,16.76
2023-03-29T14:48:44.662Z,16.78
2023-03-29T14:49:44.622Z,16.78
2023-03-29T14:50:44.630Z,16.79
2023-03-29T14:51:44.602Z,16.79
2023-03-29T14:52:46.959Z,16.81
2023-03-29T14:53:44.582Z,16.83
2023-03-29T14:54:44.569Z,16.81
2023-03-29T14:55:44.543Z,16.83
2023-03-29T14:56:44.628Z,16.79
2023-03-29T14:57:44.544Z,16.83
2023-03-29T14:58:44.512Z,16.86
2023-03-29T14:59:44.546Z,16.90
2023-03-29T15:00:44.476Z,16.87
2023-03-29T15:01:44.681Z,16.93
2023-03-29T15:02:44.572Z,16.96
2023-03-29T15:03:44.935Z,16.96
2023-03-29T15:04:44.466Z,16.96
2023-03-29T15:05:44.438Z,16.97
2023-03-29T15:06:44.414Z,16.97
2023-03-29T15:07:44.434Z,16.97
2023-03-29T15:08:54.365Z,16.99
2023-03-29T15:09:44.408Z,16.97
2023-03-29T15:10:45.168Z,16.93
2023-03-29T15:11:44.383Z,16.96
2023-03-29T15:12:44.370Z,16.94
2023-03-29T15:13:44.353Z,16.97
2023-03-29T15:14:44.379Z,16.93
2023-03-29T15:15:44.444Z,16.94
2023-03-29T15:16:44.357Z,16.94
2023-03-29T15:17:51.871Z,16.91
2023-03-29T15:18:44.288Z,16.89
2023-03-29T15:19:44.308Z,16.86
2023-03-29T15:20:44.282Z,16.81
2023-03-29T15:21:44.269Z,16.83
2023-03-29T15:22:44.248Z,16.81
2023-03-29T15:23:44.247Z,16.81
2023-03-29T15:24:44.234Z,16.79
2023-03-29T15:25:44.231Z,16.76
2023-03-29T15:26:44.256Z,16.78
2023-03-29T15:27:44.221Z,16.81
2023-03-29T15:28:44.213Z,16.81
2023-03-29T15:29:44.214Z,16.84
2023-03-29T15:30:46.214Z,16.86
2023-03-29T15:31:44.224Z,16.86
2023-03-29T15:32:44.203Z,16.84
2023-03-29T15:33:44.252Z,16.89
2023-03-29T15:34:44.121Z,16.93
2023-03-29T15:35:44.157Z,16.96
2023-03-29T15:36:44.131Z,17.05
2023-03-29T15:37:44.130Z,17.09
2023-03-29T15:38:45.325Z,17.11
2023-03-29T15:39:44.139Z,17.14
2023-03-29T15:40:44.078Z,17.12
2023-03-29T15:41:44.066Z,17.09
2023-03-29T15:42:44.030Z,17.05
2023-03-29T15:43:44.074Z,17.04
2023-03-29T15:44:44.005Z,17.02
2023-03-29T15:45:45.996Z,17.01
2023-03-29T15:46:44.058Z,16.96
2023-03-29T15:47:44.006Z,16.96
2023-03-29T15:48:43.969Z,16.93
2023-03-29T15:49:44.013Z,16.91
2023-03-29T15:50:43.934Z,16.89
2023-03-29T15:51:43.959Z,16.89
2023-03-29T15:52:43.925Z,16.87
2023-03-29T15:53:43.926Z,16.84
2023-03-29T15:54:43.898Z,16.84
2023-03-29T15:55:43.924Z,16.83
2023-03-29T15:56:43.935Z,16.81
2023-03-29T15:57:44.008Z,16.83
2023-03-29T15:58:43.871Z,16.83
2023-03-29T15:59:43.886Z,16.83
2023-03-29T16:00:43.860Z,16.84
2023-03-29T16:01:43.881Z,16.86
2023-03-29T16:02:43.897Z,16.84
2023-03-29T16:03:45.551Z,16.83
2023-03-29T16:04:43.815Z,16.79
2023-03-29T16:05:43.887Z,16.81
2023-03-29T16:06:43.781Z,16.79
2023-03-29T16:07:43.773Z,16.76
2023-03-29T16:08:43.750Z,16.79
2023-03-29T16:09:43.769Z,16.76
2023-03-29T16:10:43.768Z,16.78
2023-03-29T16:11:43.765Z,16.81
2023-03-29T16:12:43.694Z,16.83
2023-03-29T16:13:43.752Z,16.83
2023-03-29T16:14:43.830Z,16.83
2023-03-29T16:15:43.716Z,16.83
2023-03-29T16:16:43.689Z,16.81
2023-03-29T16:17:43.741Z,16.79
2023-03-29T16:18:43.666Z,16.79
2023-03-29T16:19:43.691Z,16.75
2023-03-29T16:20:43.642Z,16.75
2023-03-29T16:21:43.633Z,16.71
2023-03-29T16:22:43.620Z,16.69
2023-03-29T16:23:43.601Z,16.69
2023-03-29T16:24:43.822Z,16.71
2023-03-29T16:25:43.600Z,16.68
2023-03-29T16:26:43.562Z,16.65
2023-03-29T16:27:43.566Z,16.65
2023-03-29T16:28:43.579Z,16.64
2023-03-29T16:29:43.516Z,16.64
2023-03-29T16:30:43.521Z,16.60
2023-03-29T16:31:43.556Z,16.61
2023-03-29T16:32:43.572Z,16.61
2023-03-29T16:33:43.508Z,16.57
2023-03-29T16:34:43.506Z,16.57
2023-03-29T16:35:43.485Z,16.56
2023-03-29T16:36:43.468Z,16.54
2023-03-29T16:37:43.444Z,16.50
2023-03-29T16:38:43.502Z,16.50
2023-03-29T16:39:43.425Z,16.46
2023-03-29T16:40:43.400Z,16.43
2023-03-29T16:41:43.397Z,16.41
2023-03-29T16:42:43.414Z,16.39
2023-03-29T16:43:43.358Z,16.38
2023-03-29T16:44:43.437Z,16.36
2023-03-29T16:45:43.434Z,16.33
2023-03-29T16:46:43.369Z,16.32
2023-03-29T16:47:43.375Z,16.31
2023-03-29T16:48:43.386Z,16.28
2023-03-29T16:49:45.662Z,16.28
2023-03-29T16:50:43.379Z,16.24
2023-03-29T16:51:43.327Z,16.21
2023-03-29T16:52:43.281Z,16.20
2023-03-29T16:53:43.270Z,16.17
2023-03-29T16:54:43.261Z,16.16
2023-03-29T16:55:43.248Z,16.15
2023-03-29T16:56:43.263Z,16.13
2023-03-29T16:57:43.228Z,16.13
2023-03-29T16:58:43.222Z,16.12
2023-03-29T16:59:43.226Z,16.09
2023-03-29T17:00:45.666Z,16.05
2023-03-29T17:01:43.231Z,16.05
2023-03-29T17:02:43.215Z,16.04
2023-03-29T17:03:43.161Z,16.00
2023-03-29T17:04:43.214Z,16.00
2023-03-29T17:05:43.125Z,16.01
2023-03-29T17:06:43.132Z,16.00
2023-03-29T17:07:43.109Z,15.97
2023-03-29T17:08:43.098Z,15.97
2023-03-29T17:09:43.070Z,15.94
2023-03-29T17:10:43.158Z,15.92
2023-03-29T17:11:43.086Z,15.94
2023-03-29T17:12:43.080Z,15.90
2023-03-29T17:13:43.035Z,15.90
2023-03-29T17:14:43.065Z,15.90
2023-03-29T17:15:43.028Z,15.88
2023-03-29T17:16:43.072Z,15.86
2023-03-29T17:17:43.056Z,15.86
2023-03-29T17:18:42.995Z,15.84
2023-03-29T17:19:42.966Z,15.84
2023-03-29T17:20:42.989Z,15.82
2023-03-29T17:21:42.940Z,15.79
2023-03-29T17:22:43.006Z,15.79
2023-03-29T17:23:42.923Z,15.76
2023-03-29T17:24:43.092Z,15.75
2023-03-29T17:25:42.911Z,15.72
2023-03-29T17:26:45.679Z,15.73
2023-03-29T17:27:42.877Z,15.70
2023-03-29T17:28:42.952Z,15.67
2023-03-29T17:29:42.887Z,15.64
2023-03-29T17:30:42.930Z,15.65